sensor_id;sensor_type;location;lat;lon;timestamp;temperature;humidity
38910;DHT22;24676;51.360;12.354;2024-01-15T00:01:20;1.50;99.90
38910;DHT22;24676;51.360;12.354;2024-01-15T00:04:04;1.40;99.90
38910;DHT22;24676;51.360;12.354;2024-01-15T00:06:49;1.40;99.90
38910;DHT22;24676;51.360;12.354;2024-01-15T00:09:33;1.40;99.90
38910;DHT22;24676;51.360;12.354;2024-01-15T00:12:17;1.40;99.90
38910;DHT22;24676;51.360;12.354;2024-01-15T00:15:01;1.40;99.90
38910;DHT22;24676;51.360;12.354;2024-01-15T00:17:46;1.40;99.90
38910;DHT22;24676;51.360;12.354;2024-01-15T00:20:30;1.40;99.90
38910;DHT22;24676;51.360;12.354;2024-01-15T00:23:14;1.40;99.90
38910;DHT22;24676;51.360;12.354;2024-01-15T00:25:58;1.40;99.90
38910;DHT22;24676;51.360;12.354;2024-01-15T00:28:42;1.40;99.90
38910;DHT22;24676;51.360;12.354;2024-01-15T00:31:26;1.30;99.90
38910;DHT22;24676;51.360;12.354;2024-01-15T00:34:10;1.30;99.90
38910;DHT22;24676;51.360;12.354;2024-01-15T00:36:55;1.30;99.90
38910;DHT22;24676;51.360;12.354;2024-01-15T00:39:39;1.30;99.90
38910;DHT22;24676;51.360;12.354;2024-01-15T00:42:23;1.30;99.90
38910;DHT22;24676;51.360;12.354;2024-01-15T00:45:07;1.30;99.90
38910;DHT22;24676;51.360;12.354;2024-01-15T00:47:52;1.20;99.90
38910;DHT22;24676;51.360;12.354;2024-01-15T00:50:36;1.20;99.90
38910;DHT22;24676;51.360;12.354;2024-01-15T00:53:20;1.20;99.90
38910;DHT22;24676;51.360;12.354;2024-01-15T00:56:05;1.20;99.90
38910;DHT22;24676;51.360;12.354;2024-01-15T00:58:50;1.20;99.90
38910;DHT22;24676;51.360;12.354;2024-01-15T01:01:34;1.30;99.90
38910;DHT22;24676;51.360;12.354;2024-01-15T01:04:18;1.30;99.90
38910;DHT22;24676;51.360;12.354;2024-01-15T01:07:02;1.30;99.90
38910;DHT22;24676;51.360;12.354;2024-01-15T01:09:46;1.30;99.90
38910;DHT22;24676;51.360;12.354;2024-01-15T01:12:31;1.30;99.90
38910;DHT22;24676;51.360;12.354;2024-01-15T01:15:16;1.30;99.90
38910;DHT22;24676;51.360;12.354;2024-01-15T01:18:00;1.30;99.90
38910;DHT22;24676;51.360;12.354;2024-01-15T01:20:44;1.30;99.90
38910;DHT22;24676;51.360;12.354;2024-01-15T01:23:28;1.30;99.90
38910;DHT22;24676;51.360;12.354;2024-01-15T01:26:15;1.30;99.90
38910;DHT22;24676;51.360;12.354;2024-01-15T01:28:59;1.30;99.90
38910;DHT22;24676;51.360;12.354;2024-01-15T01:31:43;1.30;99.90
38910;DHT22;24676;51.360;12.354;2024-01-15T01:34:28;1.30;99.90
38910;DHT22;24676;51.360;12.354;2024-01-15T01:37:12;1.30;99.90
38910;DHT22;24676;51.360;12.354;2024-01-15T01:39:57;1.30;99.90
38910;DHT22;24676;51.360;12.354;2024-01-15T01:42:41;1.30;99.90
38910;DHT22;24676;51.360;12.354;2024-01-15T01:45:25;1.30;99.90
38910;DHT22;24676;51.360;12.354;2024-01-15T01:48:09;1.30;99.90
38910;DHT22;24676;51.360;12.354;2024-01-15T01:50:54;1.30;99.90
38910;DHT22;24676;51.360;12.354;2024-01-15T01:53:39;1.30;99.90
38910;DHT22;24676;51.360;12.354;2024-01-15T01:56:23;1.30;99.90
38910;DHT22;24676;51.360;12.354;2024-01-15T01:59:07;1.30;99.90
38910;DHT22;24676;51.360;12.354;2024-01-15T02:01:56;1.20;99.90
38910;DHT22;24676;51.360;12.354;2024-01-15T02:04:41;1.20;99.90
38910;DHT22;24676;51.360;12.354;2024-01-15T02:07:25;1.10;99.90
38910;DHT22;24676;51.360;12.354;2024-01-15T02:10:09;1.10;99.90
38910;DHT22;24676;51.360;12.354;2024-01-15T02:12:53;1.00;99.90
38910;DHT22;24676;51.360;12.354;2024-01-15T02:15:37;1.00;99.90
38910;DHT22;24676;51.360;12.354;2024-01-15T02:18:21;0.90;99.90
38910;DHT22;24676;51.360;12.354;2024-01-15T02:21:05;0.90;99.90
38910;DHT22;24676;51.360;12.354;2024-01-15T02:23:49;0.90;99.90
38910;DHT22;24676;51.360;12.354;2024-01-15T02:26:34;0.90;99.90
38910;DHT22;24676;51.360;12.354;2024-01-15T02:29:19;0.90;99.90
38910;DHT22;24676;51.360;12.354;2024-01-15T02:32:04;0.90;99.90
38910;DHT22;24676;51.360;12.354;2024-01-15T02:34:48;0.90;99.90
38910;DHT22;24676;51.360;12.354;2024-01-15T02:37:32;0.90;99.90
38910;DHT22;24676;51.360;12.354;2024-01-15T02:40:17;0.90;99.90
38910;DHT22;24676;51.360;12.354;2024-01-15T02:43:01;1.00;99.90
38910;DHT22;24676;51.360;12.354;2024-01-15T02:45:45;1.00;99.90
38910;DHT22;24676;51.360;12.354;2024-01-15T02:48:30;0.90;99.90
38910;DHT22;24676;51.360;12.354;2024-01-15T02:51:14;0.90;99.90
38910;DHT22;24676;51.360;12.354;2024-01-15T02:53:59;1.00;99.90
38910;DHT22;24676;51.360;12.354;2024-01-15T02:56:43;1.00;99.90
38910;DHT22;24676;51.360;12.354;2024-01-15T02:59:27;1.00;99.90
38910;DHT22;24676;51.360;12.354;2024-01-15T03:02:12;0.90;99.90
38910;DHT22;24676;51.360;12.354;2024-01-15T03:04:56;0.90;99.90
38910;DHT22;24676;51.360;12.354;2024-01-15T03:07:40;0.90;99.90
38910;DHT22;24676;51.360;12.354;2024-01-15T03:10:24;0.90;99.90
38910;DHT22;24676;51.360;12.354;2024-01-15T03:13:08;0.90;99.90
38910;DHT22;24676;51.360;12.354;2024-01-15T03:15:53;0.90;99.90
38910;DHT22;24676;51.360;12.354;2024-01-15T03:18:37;0.80;99.90
38910;DHT22;24676;51.360;12.354;2024-01-15T03:21:21;0.70;99.90
38910;DHT22;24676;51.360;12.354;2024-01-15T03:24:05;0.70;99.90
38910;DHT22;24676;51.360;12.354;2024-01-15T03:26:49;0.70;99.90
38910;DHT22;24676;51.360;12.354;2024-01-15T03:29:34;0.60;99.90
38910;DHT22;24676;51.360;12.354;2024-01-15T03:32:18;0.60;99.90
38910;DHT22;24676;51.360;12.354;2024-01-15T03:35:03;0.60;99.90
38910;DHT22;24676;51.360;12.354;2024-01-15T03:37:47;0.50;99.90
38910;DHT22;24676;51.360;12.354;2024-01-15T03:40:31;0.50;99.90
38910;DHT22;24676;51.360;12.354;2024-01-15T03:43:15;0.40;99.90
38910;DHT22;24676;51.360;12.354;2024-01-15T03:46:00;0.50;99.90
38910;DHT22;24676;51.360;12.354;2024-01-15T03:48:44;0.40;99.90
38910;DHT22;24676;51.360;12.354;2024-01-15T03:51:28;0.40;99.90
38910;DHT22;24676;51.360;12.354;2024-01-15T03:54:12;0.30;99.90
38910;DHT22;24676;51.360;12.354;2024-01-15T03:56:56;0.30;99.90
38910;DHT22;24676;51.360;12.354;2024-01-15T03:59:40;0.30;99.90
38910;DHT22;24676;51.360;12.354;2024-01-15T04:02:25;0.30;99.90
38910;DHT22;24676;51.360;12.354;2024-01-15T04:05:09;0.30;99.90
38910;DHT22;24676;51.360;12.354;2024-01-15T04:07:53;0.40;99.90
38910;DHT22;24676;51.360;12.354;2024-01-15T04:10:38;0.40;99.90
38910;DHT22;24676;51.360;12.354;2024-01-15T04:13:22;0.50;99.90
38910;DHT22;24676;51.360;12.354;2024-01-15T04:16:06;0.60;99.90
38910;DHT22;24676;51.360;12.354;2024-01-15T04:18:50;0.70;99.90
38910;DHT22;24676;51.360;12.354;2024-01-15T04:21:34;0.80;99.90
38910;DHT22;24676;51.360;12.354;2024-01-15T04:24:18;0.80;99.90
38910;DHT22;24676;51.360;12.354;2024-01-15T04:27:03;0.80;99.90
38910;DHT22;24676;51.360;12.354;2024-01-15T04:29:47;0.80;99.90
38910;DHT22;24676;51.360;12.354;2024-01-15T04:32:31;0.70;99.90
38910;DHT22;24676;51.360;12.354;2024-01-15T04:35:15;0.60;99.90
38910;DHT22;24676;51.360;12.354;2024-01-15T04:37:59;0.60;99.90
38910;DHT22;24676;51.360;12.354;2024-01-15T04:40:43;0.50;99.90
38910;DHT22;24676;51.360;12.354;2024-01-15T04:43:28;0.50;99.90
38910;DHT22;24676;51.360;12.354;2024-01-15T04:46:12;0.50;99.90
38910;DHT22;24676;51.360;12.354;2024-01-15T04:48:56;0.40;99.90
38910;DHT22;24676;51.360;12.354;2024-01-15T04:51:40;0.40;99.90
38910;DHT22;24676;51.360;12.354;2024-01-15T04:54:24;0.40;99.90
38910;DHT22;24676;51.360;12.354;2024-01-15T04:57:09;0.50;99.90
38910;DHT22;24676;51.360;12.354;2024-01-15T04:59:53;0.50;99.90
38910;DHT22;24676;51.360;12.354;2024-01-15T05:02:37;0.60;99.90
38910;DHT22;24676;51.360;12.354;2024-01-15T05:05:21;0.60;99.90
38910;DHT22;24676;51.360;12.354;2024-01-15T05:08:05;0.60;99.90
38910;DHT22;24676;51.360;12.354;2024-01-15T05:10:50;0.70;99.90
38910;DHT22;24676;51.360;12.354;2024-01-15T05:13:34;0.70;99.90
38910;DHT22;24676;51.360;12.354;2024-01-15T05:16:18;0.80;99.90
38910;DHT22;24676;51.360;12.354;2024-01-15T05:19:02;0.80;99.90
38910;DHT22;24676;51.360;12.354;2024-01-15T05:21:46;0.80;99.90
38910;DHT22;24676;51.360;12.354;2024-01-15T05:24:31;0.90;99.90
38910;DHT22;24676;51.360;12.354;2024-01-15T05:27:15;0.90;99.90
38910;DHT22;24676;51.360;12.354;2024-01-15T05:29:59;0.90;99.90
38910;DHT22;24676;51.360;12.354;2024-01-15T05:32:43;1.00;99.90
38910;DHT22;24676;51.360;12.354;2024-01-15T05:35:27;1.00;99.90
38910;DHT22;24676;51.360;12.354;2024-01-15T05:38:12;0.90;99.90
38910;DHT22;24676;51.360;12.354;2024-01-15T05:40:56;0.90;99.90
38910;DHT22;24676;51.360;12.354;2024-01-15T05:43:40;0.80;99.90
38910;DHT22;24676;51.360;12.354;2024-01-15T05:46:24;0.80;99.90
38910;DHT22;24676;51.360;12.354;2024-01-15T05:49:09;0.80;99.90
38910;DHT22;24676;51.360;12.354;2024-01-15T05:51:53;0.90;99.90
38910;DHT22;24676;51.360;12.354;2024-01-15T05:54:37;0.90;99.90
38910;DHT22;24676;51.360;12.354;2024-01-15T05:57:21;0.90;99.90
38910;DHT22;24676;51.360;12.354;2024-01-15T06:00:06;0.90;99.90
38910;DHT22;24676;51.360;12.354;2024-01-15T06:02:50;1.00;99.90
38910;DHT22;24676;51.360;12.354;2024-01-15T06:05:34;1.00;99.90
38910;DHT22;24676;51.360;12.354;2024-01-15T06:08:18;0.90;99.90
38910;DHT22;24676;51.360;12.354;2024-01-15T06:11:05;0.90;99.90
38910;DHT22;24676;51.360;12.354;2024-01-15T06:13:50;0.90;99.90
38910;DHT22;24676;51.360;12.354;2024-01-15T06:16:34;0.90;99.90
38910;DHT22;24676;51.360;12.354;2024-01-15T06:19:18;0.90;99.90
38910;DHT22;24676;51.360;12.354;2024-01-15T06:22:02;0.90;99.90
38910;DHT22;24676;51.360;12.354;2024-01-15T06:24:46;0.90;99.90
38910;DHT22;24676;51.360;12.354;2024-01-15T06:27:31;0.90;99.90
38910;DHT22;24676;51.360;12.354;2024-01-15T06:30:15;1.00;99.90
38910;DHT22;24676;51.360;12.354;2024-01-15T06:32:59;1.00;99.90
38910;DHT22;24676;51.360;12.354;2024-01-15T06:35:43;1.00;99.90
38910;DHT22;24676;51.360;12.354;2024-01-15T06:38:27;1.10;99.90
38910;DHT22;24676;51.360;12.354;2024-01-15T06:41:11;1.00;99.90
38910;DHT22;24676;51.360;12.354;2024-01-15T06:43:56;1.10;99.90
38910;DHT22;24676;51.360;12.354;2024-01-15T06:46:43;1.10;99.90
38910;DHT22;24676;51.360;12.354;2024-01-15T06:49:28;1.00;99.90
38910;DHT22;24676;51.360;12.354;2024-01-15T06:52:13;1.00;99.90
38910;DHT22;24676;51.360;12.354;2024-01-15T06:54:57;1.00;99.90
38910;DHT22;24676;51.360;12.354;2024-01-15T06:57:41;1.00;99.90
38910;DHT22;24676;51.360;12.354;2024-01-15T07:00:25;1.00;99.90
38910;DHT22;24676;51.360;12.354;2024-01-15T07:03:09;1.10;99.90
38910;DHT22;24676;51.360;12.354;2024-01-15T07:05:54;1.10;99.90
38910;DHT22;24676;51.360;12.354;2024-01-15T07:08:39;1.10;99.90
38910;DHT22;24676;51.360;12.354;2024-01-15T07:11:23;1.00;99.90
38910;DHT22;24676;51.360;12.354;2024-01-15T07:14:07;1.00;99.90
38910;DHT22;24676;51.360;12.354;2024-01-15T07:16:52;1.10;99.90
38910;DHT22;24676;51.360;12.354;2024-01-15T07:19:36;1.10;99.90
38910;DHT22;24676;51.360;12.354;2024-01-15T07:22:20;1.10;99.90
38910;DHT22;24676;51.360;12.354;2024-01-15T07:25:04;1.10;99.90
38910;DHT22;24676;51.360;12.354;2024-01-15T07:27:49;1.30;99.90
38910;DHT22;24676;51.360;12.354;2024-01-15T07:30:33;1.50;99.90
38910;DHT22;24676;51.360;12.354;2024-01-15T07:33:17;1.50;99.90
38910;DHT22;24676;51.360;12.354;2024-01-15T07:36:02;1.50;99.90
38910;DHT22;24676;51.360;12.354;2024-01-15T07:38:46;1.60;99.90
38910;DHT22;24676;51.360;12.354;2024-01-15T07:41:31;1.50;99.90
38910;DHT22;24676;51.360;12.354;2024-01-15T07:44:15;1.50;99.90
38910;DHT22;24676;51.360;12.354;2024-01-15T07:47:00;1.50;99.90
38910;DHT22;24676;51.360;12.354;2024-01-15T07:49:44;1.40;99.90
38910;DHT22;24676;51.360;12.354;2024-01-15T07:52:28;1.50;99.90
38910;DHT22;24676;51.360;12.354;2024-01-15T07:55:12;1.50;99.90
38910;DHT22;24676;51.360;12.354;2024-01-15T07:57:57;1.50;99.90
38910;DHT22;24676;51.360;12.354;2024-01-15T08:00:43;1.40;99.90
38910;DHT22;24676;51.360;12.354;2024-01-15T08:03:27;1.40;99.90
38910;DHT22;24676;51.360;12.354;2024-01-15T08:06:11;1.40;99.90
38910;DHT22;24676;51.360;12.354;2024-01-15T08:08:55;1.60;99.90
38910;DHT22;24676;51.360;12.354;2024-01-15T08:11:40;1.70;99.90
38910;DHT22;24676;51.360;12.354;2024-01-15T08:14:25;2.00;99.90
38910;DHT22;24676;51.360;12.354;2024-01-15T08:17:09;2.20;99.90
38910;DHT22;24676;51.360;12.354;2024-01-15T08:19:54;2.10;99.90
38910;DHT22;24676;51.360;12.354;2024-01-15T08:22:38;2.10;99.90
38910;DHT22;24676;51.360;12.354;2024-01-15T08:25:22;2.10;99.90
38910;DHT22;24676;51.360;12.354;2024-01-15T08:28:06;2.00;99.90
38910;DHT22;24676;51.360;12.354;2024-01-15T08:30:52;2.00;99.90
38910;DHT22;24676;51.360;12.354;2024-01-15T08:33:36;2.20;99.90
38910;DHT22;24676;51.360;12.354;2024-01-15T08:36:20;2.30;99.90
38910;DHT22;24676;51.360;12.354;2024-01-15T08:39:05;2.20;99.90
38910;DHT22;24676;51.360;12.354;2024-01-15T08:41:49;2.10;99.90
38910;DHT22;24676;51.360;12.354;2024-01-15T08:44:33;1.90;99.90
38910;DHT22;24676;51.360;12.354;2024-01-15T08:47:17;1.90;99.90
38910;DHT22;24676;51.360;12.354;2024-01-15T08:50:01;1.90;99.90
38910;DHT22;24676;51.360;12.354;2024-01-15T08:52:45;1.90;99.90
38910;DHT22;24676;51.360;12.354;2024-01-15T08:55:30;1.80;99.90
38910;DHT22;24676;51.360;12.354;2024-01-15T08:58:14;1.80;99.90
38910;DHT22;24676;51.360;12.354;2024-01-15T09:00:58;2.20;99.90
38910;DHT22;24676;51.360;12.354;2024-01-15T09:03:43;2.60;99.90
38910;DHT22;24676;51.360;12.354;2024-01-15T09:06:27;3.10;99.90
38910;DHT22;24676;51.360;12.354;2024-01-15T09:09:12;3.10;99.90
38910;DHT22;24676;51.360;12.354;2024-01-15T09:11:56;2.90;99.90
38910;DHT22;24676;51.360;12.354;2024-01-15T09:14:41;2.70;99.90
38910;DHT22;24676;51.360;12.354;2024-01-15T09:17:25;2.50;99.90
38910;DHT22;24676;51.360;12.354;2024-01-15T09:20:09;2.50;99.90
38910;DHT22;24676;51.360;12.354;2024-01-15T09:22:54;2.40;99.90
38910;DHT22;24676;51.360;12.354;2024-01-15T09:25:38;2.30;99.90
38910;DHT22;24676;51.360;12.354;2024-01-15T09:28:22;2.20;99.90
38910;DHT22;24676;51.360;12.354;2024-01-15T09:31:06;2.20;99.90
38910;DHT22;24676;51.360;12.354;2024-01-15T09:33:51;2.20;99.90
38910;DHT22;24676;51.360;12.354;2024-01-15T09:36:40;2.30;99.90
38910;DHT22;24676;51.360;12.354;2024-01-15T09:39:27;2.30;99.90
38910;DHT22;24676;51.360;12.354;2024-01-15T09:42:11;2.30;99.90
38910;DHT22;24676;51.360;12.354;2024-01-15T09:44:56;2.30;99.90
38910;DHT22;24676;51.360;12.354;2024-01-15T09:47:40;2.40;99.90
38910;DHT22;24676;51.360;12.354;2024-01-15T09:50:25;2.40;99.90
38910;DHT22;24676;51.360;12.354;2024-01-15T09:53:10;2.40;99.90
38910;DHT22;24676;51.360;12.354;2024-01-15T09:55:56;2.70;99.90
38910;DHT22;24676;51.360;12.354;2024-01-15T09:58:40;2.90;99.90
38910;DHT22;24676;51.360;12.354;2024-01-15T10:01:26;3.00;99.90
38910;DHT22;24676;51.360;12.354;2024-01-15T10:04:11;3.00;99.90
38910;DHT22;24676;51.360;12.354;2024-01-15T10:06:56;2.80;99.90
38910;DHT22;24676;51.360;12.354;2024-01-15T10:09:41;2.60;99.90
38910;DHT22;24676;51.360;12.354;2024-01-15T10:12:25;2.50;99.90
38910;DHT22;24676;51.360;12.354;2024-01-15T10:15:11;2.40;99.90
38910;DHT22;24676;51.360;12.354;2024-01-15T10:17:59;2.40;99.90
38910;DHT22;24676;51.360;12.354;2024-01-15T10:20:43;2.30;99.90
38910;DHT22;24676;51.360;12.354;2024-01-15T10:23:28;2.30;99.90
38910;DHT22;24676;51.360;12.354;2024-01-15T10:26:12;2.30;99.90
38910;DHT22;24676;51.360;12.354;2024-01-15T10:28:57;2.30;99.90
38910;DHT22;24676;51.360;12.354;2024-01-15T10:31:42;2.30;99.90
38910;DHT22;24676;51.360;12.354;2024-01-15T10:34:26;2.30;99.90
38910;DHT22;24676;51.360;12.354;2024-01-15T10:37:10;2.20;99.90
38910;DHT22;24676;51.360;12.354;2024-01-15T10:39:54;2.30;99.90
38910;DHT22;24676;51.360;12.354;2024-01-15T10:42:39;2.30;99.90
38910;DHT22;24676;51.360;12.354;2024-01-15T10:45:23;2.30;99.90
38910;DHT22;24676;51.360;12.354;2024-01-15T10:48:08;2.20;99.90
38910;DHT22;24676;51.360;12.354;2024-01-15T10:50:52;2.30;99.90
38910;DHT22;24676;51.360;12.354;2024-01-15T10:53:39;2.20;99.90
38910;DHT22;24676;51.360;12.354;2024-01-15T10:56:27;2.20;99.90
38910;DHT22;24676;51.360;12.354;2024-01-15T10:59:11;2.20;99.90
38910;DHT22;24676;51.360;12.354;2024-01-15T11:01:56;2.20;99.90
38910;DHT22;24676;51.360;12.354;2024-01-15T11:04:40;2.30;99.90
38910;DHT22;24676;51.360;12.354;2024-01-15T11:07:25;2.30;99.90
38910;DHT22;24676;51.360;12.354;2024-01-15T11:13:14;2.40;99.90
38910;DHT22;24676;51.360;12.354;2024-01-15T11:16:02;2.40;99.90
38910;DHT22;24676;51.360;12.354;2024-01-15T11:21:43;2.50;99.90
38910;DHT22;24676;51.360;12.354;2024-01-15T11:24:34;2.50;99.90
38910;DHT22;24676;51.360;12.354;2024-01-15T11:27:39;2.60;99.90
38910;DHT22;24676;51.360;12.354;2024-01-15T11:30:24;2.50;99.90
38910;DHT22;24676;51.360;12.354;2024-01-15T11:33:31;2.50;99.90
38910;DHT22;24676;51.360;12.354;2024-01-15T11:36:13;2.40;99.90
38910;DHT22;24676;51.360;12.354;2024-01-15T11:38:57;2.40;99.90
38910;DHT22;24676;51.360;12.354;2024-01-15T11:41:42;2.40;99.90
38910;DHT22;24676;51.360;12.354;2024-01-15T11:44:27;2.40;99.90
38910;DHT22;24676;51.360;12.354;2024-01-15T11:47:11;2.40;99.90
38910;DHT22;24676;51.360;12.354;2024-01-15T11:50:00;2.40;99.90
38910;DHT22;24676;51.360;12.354;2024-01-15T11:52:48;2.40;99.90
38910;DHT22;24676;51.360;12.354;2024-01-15T11:55:36;2.40;99.90
38910;DHT22;24676;51.360;12.354;2024-01-15T11:58:22;2.40;99.90
38910;DHT22;24676;51.360;12.354;2024-01-15T12:01:06;2.50;99.90
38910;DHT22;24676;51.360;12.354;2024-01-15T12:03:51;2.50;99.90
38910;DHT22;24676;51.360;12.354;2024-01-15T12:06:35;2.60;99.90
38910;DHT22;24676;51.360;12.354;2024-01-15T12:09:19;2.60;99.90
38910;DHT22;24676;51.360;12.354;2024-01-15T12:12:07;2.70;99.90
38910;DHT22;24676;51.360;12.354;2024-01-15T12:14:54;2.80;99.90
38910;DHT22;24676;51.360;12.354;2024-01-15T12:17:39;2.80;99.90
38910;DHT22;24676;51.360;12.354;2024-01-15T12:20:23;2.80;99.90
38910;DHT22;24676;51.360;12.354;2024-01-15T12:23:08;2.90;99.90
38910;DHT22;24676;51.360;12.354;2024-01-15T12:25:52;3.00;99.90
38910;DHT22;24676;51.360;12.354;2024-01-15T12:28:36;3.00;99.90
38910;DHT22;24676;51.360;12.354;2024-01-15T12:31:20;2.90;99.90
38910;DHT22;24676;51.360;12.354;2024-01-15T12:34:05;2.80;99.90
38910;DHT22;24676;51.360;12.354;2024-01-15T12:36:49;2.80;99.90
38910;DHT22;24676;51.360;12.354;2024-01-15T12:39:34;2.80;99.90
38910;DHT22;24676;51.360;12.354;2024-01-15T12:42:18;2.80;99.90
38910;DHT22;24676;51.360;12.354;2024-01-15T12:45:03;2.90;99.90
38910;DHT22;24676;51.360;12.354;2024-01-15T12:47:49;3.00;99.90
38910;DHT22;24676;51.360;12.354;2024-01-15T12:50:34;3.00;99.90
38910;DHT22;24676;51.360;12.354;2024-01-15T12:53:19;3.00;99.90
38910;DHT22;24676;51.360;12.354;2024-01-15T12:56:03;3.00;99.90
38910;DHT22;24676;51.360;12.354;2024-01-15T12:58:48;3.00;99.90
38910;DHT22;24676;51.360;12.354;2024-01-15T13:01:32;3.00;99.90
38910;DHT22;24676;51.360;12.354;2024-01-15T13:04:25;3.00;99.90
38910;DHT22;24676;51.360;12.354;2024-01-15T13:07:09;3.00;99.90
38910;DHT22;24676;51.360;12.354;2024-01-15T13:09:54;3.00;99.90
38910;DHT22;24676;51.360;12.354;2024-01-15T13:12:38;2.90;99.90
38910;DHT22;24676;51.360;12.354;2024-01-15T13:15:22;2.80;99.90
38910;DHT22;24676;51.360;12.354;2024-01-15T13:18:06;2.80;99.90
38910;DHT22;24676;51.360;12.354;2024-01-15T13:20:50;2.60;99.90
38910;DHT22;24676;51.360;12.354;2024-01-15T13:23:34;2.60;99.90
38910;DHT22;24676;51.360;12.354;2024-01-15T13:26:18;2.60;99.90
38910;DHT22;24676;51.360;12.354;2024-01-15T13:29:04;2.60;99.90
38910;DHT22;24676;51.360;12.354;2024-01-15T13:31:48;2.60;99.90
38910;DHT22;24676;51.360;12.354;2024-01-15T13:34:32;2.60;99.90
38910;DHT22;24676;51.360;12.354;2024-01-15T13:37:16;2.60;99.90
38910;DHT22;24676;51.360;12.354;2024-01-15T13:40:01;2.60;99.90
38910;DHT22;24676;51.360;12.354;2024-01-15T13:42:45;2.50;99.90
38910;DHT22;24676;51.360;12.354;2024-01-15T13:45:29;2.60;99.90
38910;DHT22;24676;51.360;12.354;2024-01-15T13:48:13;2.50;99.90
38910;DHT22;24676;51.360;12.354;2024-01-15T13:51:01;2.50;99.90
38910;DHT22;24676;51.360;12.354;2024-01-15T13:53:45;2.60;99.90
38910;DHT22;24676;51.360;12.354;2024-01-15T13:56:29;2.50;99.90
38910;DHT22;24676;51.360;12.354;2024-01-15T13:59:16;2.50;99.90
38910;DHT22;24676;51.360;12.354;2024-01-15T14:02:00;2.50;99.90
38910;DHT22;24676;51.360;12.354;2024-01-15T14:04:44;2.50;99.90
38910;DHT22;24676;51.360;12.354;2024-01-15T14:07:28;2.50;99.90
38910;DHT22;24676;51.360;12.354;2024-01-15T14:10:12;2.60;99.90
38910;DHT22;24676;51.360;12.354;2024-01-15T14:12:56;2.60;99.90
38910;DHT22;24676;51.360;12.354;2024-01-15T14:15:41;2.60;99.90
38910;DHT22;24676;51.360;12.354;2024-01-15T14:18:25;2.50;99.90
38910;DHT22;24676;51.360;12.354;2024-01-15T14:21:10;2.50;99.90
38910;DHT22;24676;51.360;12.354;2024-01-15T14:23:54;2.50;99.90
38910;DHT22;24676;51.360;12.354;2024-01-15T14:26:38;2.50;99.90
38910;DHT22;24676;51.360;12.354;2024-01-15T14:29:23;2.40;99.90
38910;DHT22;24676;51.360;12.354;2024-01-15T14:32:09;2.40;99.90
38910;DHT22;24676;51.360;12.354;2024-01-15T14:34:53;2.40;99.90
38910;DHT22;24676;51.360;12.354;2024-01-15T14:37:38;2.40;99.90
38910;DHT22;24676;51.360;12.354;2024-01-15T14:40:22;2.40;99.90
38910;DHT22;24676;51.360;12.354;2024-01-15T14:43:06;2.40;99.90
38910;DHT22;24676;51.360;12.354;2024-01-15T14:45:52;2.30;99.90
38910;DHT22;24676;51.360;12.354;2024-01-15T14:48:36;2.30;99.90
38910;DHT22;24676;51.360;12.354;2024-01-15T14:51:20;2.30;99.90
38910;DHT22;24676;51.360;12.354;2024-01-15T14:54:04;2.30;99.90
38910;DHT22;24676;51.360;12.354;2024-01-15T14:56:48;2.30;99.90
38910;DHT22;24676;51.360;12.354;2024-01-15T14:59:33;2.20;99.90
38910;DHT22;24676;51.360;12.354;2024-01-15T15:02:17;2.20;99.90
38910;DHT22;24676;51.360;12.354;2024-01-15T15:05:02;2.20;99.90
38910;DHT22;24676;51.360;12.354;2024-01-15T15:07:46;2.20;99.90
38910;DHT22;24676;51.360;12.354;2024-01-15T15:10:31;2.20;99.90
38910;DHT22;24676;51.360;12.354;2024-01-15T15:13:15;2.10;99.90
38910;DHT22;24676;51.360;12.354;2024-01-15T15:15:59;2.10;99.90
38910;DHT22;24676;51.360;12.354;2024-01-15T15:18:43;2.10;99.90
38910;DHT22;24676;51.360;12.354;2024-01-15T15:21:27;2.10;99.90
38910;DHT22;24676;51.360;12.354;2024-01-15T15:24:13;2.10;99.90
38910;DHT22;24676;51.360;12.354;2024-01-15T15:26:57;2.10;99.90
38910;DHT22;24676;51.360;12.354;2024-01-15T15:29:41;2.10;99.90
38910;DHT22;24676;51.360;12.354;2024-01-15T15:32:25;2.00;99.90
38910;DHT22;24676;51.360;12.354;2024-01-15T15:35:09;2.00;99.90
38910;DHT22;24676;51.360;12.354;2024-01-15T15:37:54;2.00;99.90
38910;DHT22;24676;51.360;12.354;2024-01-15T15:40:38;1.90;99.90
38910;DHT22;24676;51.360;12.354;2024-01-15T15:43:22;1.90;99.90
38910;DHT22;24676;51.360;12.354;2024-01-15T15:46:06;1.90;99.90
38910;DHT22;24676;51.360;12.354;2024-01-15T15:48:50;1.90;99.90
38910;DHT22;24676;51.360;12.354;2024-01-15T15:51:35;1.80;99.90
38910;DHT22;24676;51.360;12.354;2024-01-15T15:54:22;1.80;99.90
38910;DHT22;24676;51.360;12.354;2024-01-15T15:57:06;1.80;99.90
38910;DHT22;24676;51.360;12.354;2024-01-15T15:59:51;1.80;99.90
38910;DHT22;24676;51.360;12.354;2024-01-15T16:02:37;1.80;99.90
38910;DHT22;24676;51.360;12.354;2024-01-15T16:05:22;1.80;99.90
38910;DHT22;24676;51.360;12.354;2024-01-15T16:08:06;1.80;99.90
38910;DHT22;24676;51.360;12.354;2024-01-15T16:10:50;1.70;99.90
38910;DHT22;24676;51.360;12.354;2024-01-15T16:13:35;1.80;99.90
38910;DHT22;24676;51.360;12.354;2024-01-15T16:16:19;1.70;99.90
38910;DHT22;24676;51.360;12.354;2024-01-15T16:19:03;1.70;99.90
38910;DHT22;24676;51.360;12.354;2024-01-15T16:21:47;1.70;99.90
38910;DHT22;24676;51.360;12.354;2024-01-15T16:24:31;1.70;99.90
38910;DHT22;24676;51.360;12.354;2024-01-15T16:27:15;1.70;99.90
38910;DHT22;24676;51.360;12.354;2024-01-15T16:30:00;1.70;99.90
38910;DHT22;24676;51.360;12.354;2024-01-15T16:32:44;1.70;99.90
38910;DHT22;24676;51.360;12.354;2024-01-15T16:35:28;1.70;99.90
38910;DHT22;24676;51.360;12.354;2024-01-15T16:38:12;1.70;99.90
38910;DHT22;24676;51.360;12.354;2024-01-15T16:40:56;1.70;99.90
38910;DHT22;24676;51.360;12.354;2024-01-15T16:43:40;1.70;99.90
38910;DHT22;24676;51.360;12.354;2024-01-15T16:46:25;1.70;99.90
38910;DHT22;24676;51.360;12.354;2024-01-15T16:49:09;1.60;99.90
38910;DHT22;24676;51.360;12.354;2024-01-15T16:51:55;1.60;99.90
38910;DHT22;24676;51.360;12.354;2024-01-15T16:54:39;1.60;99.90
38910;DHT22;24676;51.360;12.354;2024-01-15T16:57:23;1.70;99.90
38910;DHT22;24676;51.360;12.354;2024-01-15T17:00:08;1.70;99.90
38910;DHT22;24676;51.360;12.354;2024-01-15T17:02:53;1.70;99.90
38910;DHT22;24676;51.360;12.354;2024-01-15T17:05:37;1.70;99.90
38910;DHT22;24676;51.360;12.354;2024-01-15T17:08:21;1.70;99.90
38910;DHT22;24676;51.360;12.354;2024-01-15T17:11:05;1.70;99.90
38910;DHT22;24676;51.360;12.354;2024-01-15T17:13:50;1.70;99.90
38910;DHT22;24676;51.360;12.354;2024-01-15T17:16:35;1.70;99.90
38910;DHT22;24676;51.360;12.354;2024-01-15T17:19:19;1.80;99.90
38910;DHT22;24676;51.360;12.354;2024-01-15T17:22:04;1.70;99.90
38910;DHT22;24676;51.360;12.354;2024-01-15T17:24:48;1.70;99.90